Briefing drone pour Aix-les-bains

Rechercher une autre localisation

Conditions de vol :


Nous sommes le : Jeudi 29 septembre 2022
Il est 02:20 UTC (04:20 LT)

Lever de soleil : 05:05 UTC (07:05 LT)
Coucher de soleil : 17:47 UTC (19:47 LT)

Météo

L'essentiel des conditions de vol

VIGILANCE MÉTÉO FRANCE - Savoie (73)
Vigilance Jaune : Pluie-inondation
CARTE TEMSI
CARTES DES FRONTS
METAR de LFLB
LFLB 290200Z AUTO 17006KT 9999 FEW030/// SCT038/// BKN048/// ///TCU 13/12 Q1001

Date d'émission: 29/09/2022
Heure d'émission: 02:00 UTC
Vent: 170° pour 6 KT (11 km/h)
Visibilité horizontale: > 10 km
Plafond :
- Peu de nuages à 3000ft (914m)
- Nuages épars à 3800ft (1158m)
- Nuages morcelés à 4800ft (1463m)
Température: 13 °C
Point de rosée: 12 °C
Humidité: 94%
Pression (QNH): 1001 hPa
TAF de LFLB
LFLB 290200Z 2903/3003 19004KT

Conditions prévues :

Heure d'émission : Bulletin éffectué le 29 à 03:00 UTC
Prévision : Valide du 29 a 03:00 UTC au 30 a 03:00 UTC
Vent : 190° pour 4 KT (7 km/h)
WEBCAM POUR AIX-LES-BAINS

Réglementation

Voler en sécurité

CARTES AERONAUTIQUE 1/500.000
CARTE AZBA (Reseau basse altitude)
CARTES VAC (LFLB)
SUP AIP




Chargement des AIP...
NOTAM (AIX-LES-BAINS + Terrain à proximité / FIR )




Chargement des NOTAMS...
CONTACT PREFECTURE 73


Avertissement : Les données mises à disposition sont indicatives. Oxygène Drone ne pourra être tenu responsable de dégâts causés aux biens et aux personnes.